sensor_id;sensor_type;location;lat;lon;timestamp;P1;durP1;ratioP1;P2;durP2;ratioP2
4616;SDS011;2321;42.704;23.384;2023-12-22T00:06:03;116.05;;;41.15;;
4616;SDS011;2321;42.704;23.384;2023-12-22T00:08:31;318.33;;;93.95;;
4616;SDS011;2321;42.704;23.384;2023-12-22T00:10:59;183.80;;;56.45;;
4616;SDS011;2321;42.704;23.384;2023-12-22T00:13:26;165.80;;;51.30;;
4616;SDS011;2321;42.704;23.384;2023-12-22T00:15:53;133.70;;;29.73;;
4616;SDS011;2321;42.704;23.384;2023-12-22T00:18:20;144.60;;;28.53;;
4616;SDS011;2321;42.704;23.384;2023-12-22T00:20:47;174.77;;;38.23;;
4616;SDS011;2321;42.704;23.384;2023-12-22T00:23:14;225.63;;;54.30;;
4616;SDS011;2321;42.704;23.384;2023-12-22T00:25:41;230.77;;;57.57;;
4616;SDS011;2321;42.704;23.384;2023-12-22T00:28:10;233.47;;;58.43;;
4616;SDS011;2321;42.704;23.384;2023-12-22T00:30:37;207.30;;;53.60;;
4616;SDS011;2321;42.704;23.384;2023-12-22T00:33:04;199.27;;;53.03;;
4616;SDS011;2321;42.704;23.384;2023-12-22T00:35:31;156.23;;;41.40;;
4616;SDS011;2321;42.704;23.384;2023-12-22T00:40:27;215.70;;;78.50;;
4616;SDS011;2321;42.704;23.384;2023-12-22T00:45:22;239.82;;;70.60;;
4616;SDS011;2321;42.704;23.384;2023-12-22T00:47:50;110.80;;;31.17;;
4616;SDS011;2321;42.704;23.384;2023-12-22T00:50:17;30.57;;;14.53;;
4616;SDS011;2321;42.704;23.384;2023-12-22T00:55:11;70.20;;;23.67;;
4616;SDS011;2321;42.704;23.384;2023-12-22T00:57:38;66.80;;;26.67;;
4616;SDS011;2321;42.704;23.384;2023-12-22T01:00:06;20.10;;;6.75;;
4616;SDS011;2321;42.704;23.384;2023-12-22T01:36:59;36.20;;;14.00;;
4616;SDS011;2321;42.704;23.384;2023-12-22T02:03:58;18.80;;;5.95;;
4616;SDS011;2321;42.704;23.384;2023-12-22T07:55:07;27.80;;;14.50;;
4616;SDS011;2321;42.704;23.384;2023-12-22T08:56:29;805.50;;;304.97;;
4616;SDS011;2321;42.704;23.384;2023-12-22T08:58:57;690.03;;;182.63;;
4616;SDS011;2321;42.704;23.384;2023-12-22T09:01:25;800.10;;;319.90;;
4616;SDS011;2321;42.704;23.384;2023-12-22T09:03:52;727.57;;;177.00;;
4616;SDS011;2321;42.704;23.384;2023-12-22T09:06:19;794.08;;;303.75;;
4616;SDS011;2321;42.704;23.384;2023-12-22T09:08:48;124.25;;;42.55;;
4616;SDS011;2321;42.704;23.384;2023-12-22T09:11:16;129.40;;;34.57;;
4616;SDS011;2321;42.704;23.384;2023-12-22T09:13:44;150.50;;;39.83;;
4616;SDS011;2321;42.704;23.384;2023-12-22T09:16:12;68.85;;;20.70;;
4616;SDS011;2321;42.704;23.384;2023-12-22T09:18:40;63.20;;;20.65;;
4616;SDS011;2321;42.704;23.384;2023-12-22T09:23:36;206.57;;;55.55;;
4616;SDS011;2321;42.704;23.384;2023-12-22T09:28:30;199.10;;;54.38;;
4616;SDS011;2321;42.704;23.384;2023-12-22T09:30:57;37.15;;;21.60;;
4616;SDS011;2321;42.704;23.384;2023-12-22T09:33:26;172.68;;;44.90;;
4616;SDS011;2321;42.704;23.384;2023-12-22T09:35:53;169.85;;;44.42;;
4616;SDS011;2321;42.704;23.384;2023-12-22T09:38:20;182.45;;;48.58;;
4616;SDS011;2321;42.704;23.384;2023-12-22T09:40:49;174.40;;;48.25;;
4616;SDS011;2321;42.704;23.384;2023-12-22T09:43:16;166.50;;;43.77;;
4616;SDS011;2321;42.704;23.384;2023-12-22T09:45:46;195.00;;;49.00;;
4616;SDS011;2321;42.704;23.384;2023-12-22T09:48:14;184.27;;;47.97;;
4616;SDS011;2321;42.704;23.384;2023-12-22T09:50:44;188.83;;;47.97;;
4616;SDS011;2321;42.704;23.384;2023-12-22T09:53:13;171.60;;;45.77;;
4616;SDS011;2321;42.704;23.384;2023-12-22T09:55:41;166.13;;;46.27;;
4616;SDS011;2321;42.704;23.384;2023-12-22T09:58:11;165.53;;;44.60;;
4616;SDS011;2321;42.704;23.384;2023-12-22T10:00:40;158.13;;;44.70;;
4616;SDS011;2321;42.704;23.384;2023-12-22T10:03:10;160.63;;;44.90;;
4616;SDS011;2321;42.704;23.384;2023-12-22T10:05:40;142.90;;;41.50;;
4616;SDS011;2321;42.704;23.384;2023-12-22T10:08:12;158.13;;;43.87;;
4616;SDS011;2321;42.704;23.384;2023-12-22T10:11:01;150.83;;;42.77;;
4616;SDS011;2321;42.704;23.384;2023-12-22T10:13:30;169.63;;;47.57;;
4616;SDS011;2321;42.704;23.384;2023-12-22T10:15:59;157.23;;;44.60;;
4616;SDS011;2321;42.704;23.384;2023-12-22T10:18:30;144.23;;;41.67;;
4616;SDS011;2321;42.704;23.384;2023-12-22T10:21:02;157.02;;;45.13;;
4616;SDS011;2321;42.704;23.384;2023-12-22T10:23:31;161.33;;;46.23;;
4616;SDS011;2321;42.704;23.384;2023-12-22T10:25:58;157.60;;;44.70;;
4616;SDS011;2321;42.704;23.384;2023-12-22T10:28:27;154.93;;;43.23;;
4616;SDS011;2321;42.704;23.384;2023-12-22T10:30:54;151.33;;;43.90;;
4616;SDS011;2321;42.704;23.384;2023-12-22T10:33:24;152.30;;;44.07;;
4616;SDS011;2321;42.704;23.384;2023-12-22T10:35:53;162.03;;;45.73;;
4616;SDS011;2321;42.704;23.384;2023-12-22T10:38:20;174.30;;;45.90;;
4616;SDS011;2321;42.704;23.384;2023-12-22T10:40:49;170.00;;;47.53;;
4616;SDS011;2321;42.704;23.384;2023-12-22T10:43:16;168.97;;;45.63;;
4616;SDS011;2321;42.704;23.384;2023-12-22T10:45:43;162.97;;;45.00;;
4616;SDS011;2321;42.704;23.384;2023-12-22T10:48:12;163.30;;;44.40;;
4616;SDS011;2321;42.704;23.384;2023-12-22T10:50:48;151.67;;;44.27;;
4616;SDS011;2321;42.704;23.384;2023-12-22T10:53:15;148.00;;;42.80;;
4616;SDS011;2321;42.704;23.384;2023-12-22T10:55:42;131.10;;;39.75;;
4616;SDS011;2321;42.704;23.384;2023-12-22T10:58:17;123.60;;;37.73;;
4616;SDS011;2321;42.704;23.384;2023-12-22T11:00:46;201.10;;;49.73;;
4616;SDS011;2321;42.704;23.384;2023-12-22T11:03:17;150.57;;;42.20;;
4616;SDS011;2321;42.704;23.384;2023-12-22T11:05:48;152.83;;;43.53;;
4616;SDS011;2321;42.704;23.384;2023-12-22T11:08:17;154.40;;;45.27;;
4616;SDS011;2321;42.704;23.384;2023-12-22T11:10:46;131.10;;;39.40;;
4616;SDS011;2321;42.704;23.384;2023-12-22T11:13:22;197.17;;;50.43;;
4616;SDS011;2321;42.704;23.384;2023-12-22T11:15:50;171.43;;;47.40;;
4616;SDS011;2321;42.704;23.384;2023-12-22T11:18:23;194.37;;;49.20;;
4616;SDS011;2321;42.704;23.384;2023-12-22T11:20:51;189.40;;;50.00;;
4616;SDS011;2321;42.704;23.384;2023-12-22T11:23:19;156.90;;;42.43;;
4616;SDS011;2321;42.704;23.384;2023-12-22T11:25:48;151.53;;;44.00;;
4616;SDS011;2321;42.704;23.384;2023-12-22T11:28:19;167.00;;;47.90;;
4616;SDS011;2321;42.704;23.384;2023-12-22T11:30:50;170.93;;;47.37;;
4616;SDS011;2321;42.704;23.384;2023-12-22T11:33:18;173.43;;;49.33;;
4616;SDS011;2321;42.704;23.384;2023-12-22T11:35:46;189.07;;;50.60;;
4616;SDS011;2321;42.704;23.384;2023-12-22T11:38:13;169.90;;;47.40;;
4616;SDS011;2321;42.704;23.384;2023-12-22T11:40:40;197.23;;;52.20;;
4616;SDS011;2321;42.704;23.384;2023-12-22T11:43:08;187.93;;;49.27;;
4616;SDS011;2321;42.704;23.384;2023-12-22T11:45:37;183.20;;;48.50;;
4616;SDS011;2321;42.704;23.384;2023-12-22T11:48:07;200.60;;;51.33;;
4616;SDS011;2321;42.704;23.384;2023-12-22T11:50:35;195.73;;;50.00;;
4616;SDS011;2321;42.704;23.384;2023-12-22T11:53:19;191.43;;;49.70;;
4616;SDS011;2321;42.704;23.384;2023-12-22T11:55:56;160.37;;;44.70;;
4616;SDS011;2321;42.704;23.384;2023-12-22T11:58:34;154.33;;;43.90;;
4616;SDS011;2321;42.704;23.384;2023-12-22T12:01:05;175.80;;;48.33;;
4616;SDS011;2321;42.704;23.384;2023-12-22T12:03:35;157.67;;;44.97;;
4616;SDS011;2321;42.704;23.384;2023-12-22T12:06:16;177.77;;;47.17;;
4616;SDS011;2321;42.704;23.384;2023-12-22T12:08:48;127.77;;;38.87;;
4616;SDS011;2321;42.704;23.384;2023-12-22T12:11:16;149.20;;;42.37;;
4616;SDS011;2321;42.704;23.384;2023-12-22T12:13:44;174.93;;;47.53;;
4616;SDS011;2321;42.704;23.384;2023-12-22T12:16:14;156.47;;;43.60;;
4616;SDS011;2321;42.704;23.384;2023-12-22T12:18:46;140.80;;;40.97;;
4616;SDS011;2321;42.704;23.384;2023-12-22T12:21:14;108.33;;;35.63;;
4616;SDS011;2321;42.704;23.384;2023-12-22T12:23:42;65.97;;;30.00;;
4616;SDS011;2321;42.704;23.384;2023-12-22T12:26:10;76.27;;;32.10;;
4616;SDS011;2321;42.704;23.384;2023-12-22T12:28:38;63.00;;;27.27;;
4616;SDS011;2321;42.704;23.384;2023-12-22T12:31:11;70.53;;;30.00;;
4616;SDS011;2321;42.704;23.384;2023-12-22T12:33:39;84.03;;;31.40;;
4616;SDS011;2321;42.704;23.384;2023-12-22T12:36:07;138.00;;;41.00;;
4616;SDS011;2321;42.704;23.384;2023-12-22T12:38:36;95.55;;;29.10;;
4616;SDS011;2321;42.704;23.384;2023-12-22T12:41:09;81.40;;;27.08;;
4616;SDS011;2321;42.704;23.384;2023-12-22T12:43:42;25.60;;;8.02;;
4616;SDS011;2321;42.704;23.384;2023-12-22T12:46:09;35.47;;;12.80;;
4616;SDS011;2321;42.704;23.384;2023-12-22T12:48:37;92.27;;;32.57;;
4616;SDS011;2321;42.704;23.384;2023-12-22T12:51:05;118.10;;;37.70;;
4616;SDS011;2321;42.704;23.384;2023-12-22T12:53:33;46.45;;;18.92;;
4616;SDS011;2321;42.704;23.384;2023-12-22T12:58:31;174.40;;;52.10;;
4616;SDS011;2321;42.704;23.384;2023-12-22T13:01:06;120.85;;;39.28;;
4616;SDS011;2321;42.704;23.384;2023-12-22T13:06:22;132.82;;;42.22;;
4616;SDS011;2321;42.704;23.384;2023-12-22T13:08:50;140.00;;;43.90;;
4616;SDS011;2321;42.704;23.384;2023-12-22T13:11:20;137.95;;;40.33;;
4616;SDS011;2321;42.704;23.384;2023-12-22T13:13:48;140.47;;;40.53;;
4616;SDS011;2321;42.704;23.384;2023-12-22T13:16:17;125.10;;;37.93;;
4616;SDS011;2321;42.704;23.384;2023-12-22T13:18:46;98.60;;;33.95;;
4616;SDS011;2321;42.704;23.384;2023-12-22T13:21:13;94.10;;;36.20;;
4616;SDS011;2321;42.704;23.384;2023-12-22T13:23:42;126.38;;;40.00;;
4616;SDS011;2321;42.704;23.384;2023-12-22T13:26:17;170.43;;;46.53;;
4616;SDS011;2321;42.704;23.384;2023-12-22T13:28:45;138.38;;;41.15;;
4616;SDS011;2321;42.704;23.384;2023-12-22T13:31:13;144.73;;;43.05;;
4616;SDS011;2321;42.704;23.384;2023-12-22T13:33:43;141.70;;;41.70;;
4616;SDS011;2321;42.704;23.384;2023-12-22T13:36:10;145.90;;;42.23;;
4616;SDS011;2321;42.704;23.384;2023-12-22T13:38:38;172.13;;;48.13;;
4616;SDS011;2321;42.704;23.384;2023-12-22T13:41:08;158.07;;;45.90;;
4616;SDS011;2321;42.704;23.384;2023-12-22T13:43:36;178.63;;;49.43;;
4616;SDS011;2321;42.704;23.384;2023-12-22T13:46:03;153.47;;;46.10;;
4616;SDS011;2321;42.704;23.384;2023-12-22T13:48:32;153.67;;;44.83;;
4616;SDS011;2321;42.704;23.384;2023-12-22T13:51:00;146.13;;;43.38;;
4616;SDS011;2321;42.704;23.384;2023-12-22T13:53:28;112.25;;;35.10;;
4616;SDS011;2321;42.704;23.384;2023-12-22T13:55:56;105.75;;;35.92;;
4616;SDS011;2321;42.704;23.384;2023-12-22T13:58:24;86.50;;;34.75;;
4616;SDS011;2321;42.704;23.384;2023-12-22T14:00:52;59.08;;;20.17;;
4616;SDS011;2321;42.704;23.384;2023-12-22T14:10:45;92.10;;;43.10;;
4616;SDS011;2321;42.704;23.384;2023-12-22T14:15:42;97.85;;;41.30;;
4616;SDS011;2321;42.704;23.384;2023-12-22T14:20:37;133.02;;;47.33;;
4616;SDS011;2321;42.704;23.384;2023-12-22T14:23:04;89.50;;;35.63;;
4616;SDS011;2321;42.704;23.384;2023-12-22T14:25:31;54.53;;;26.77;;
4616;SDS011;2321;42.704;23.384;2023-12-22T14:27:58;25.50;;;11.30;;
4616;SDS011;2321;42.704;23.384;2023-12-22T14:30:25;58.15;;;18.98;;
4616;SDS011;2321;42.704;23.384;2023-12-22T14:32:54;78.85;;;33.35;;
4616;SDS011;2321;42.704;23.384;2023-12-22T14:35:21;49.35;;;20.73;;
4616;SDS011;2321;42.704;23.384;2023-12-22T15:04:45;31.83;;;11.33;;
4616;SDS011;2321;42.704;23.384;2023-12-22T15:09:42;65.28;;;59.42;;
4616;SDS011;2321;42.704;23.384;2023-12-22T15:27:01;33.65;;;19.63;;
